Time,TemperatureF,DewpointF,PressureIn,WindDirection,WindDirectionDegrees,WindSpeedMPH,WindSpeedGustMPH,Humidity,HourlyPrecipIn,Conditions,Clouds,dailyrainin,SoftwareType,DateUTC
2013-02-25 00:14:00,31.6,21.0,29.98,South,185,0.0,-999.0,64,-99.99,,,0.00,weatherlink.com 1.10,2013-02-25 05:14:00,
2013-02-25 00:29:00,32.1,20.0,29.97,SSE,154,0.0,-999.0,62,-99.99,,,0.00,weatherlink.com 1.10,2013-02-25 05:29:00,
2013-02-25 00:44:00,31.9,20.0,29.97,ESE,109,1.0,-999.0,63,-99.99,,,0.00,weatherlink.com 1.10,2013-02-25 05:44:00,
2013-02-25 00:59:00,31.9,20.0,29.96,SSW,212,3.0,-999.0,63,-99.99,,,0.00,weatherlink.com 1.10,2013-02-25 05:59:00,
2013-02-25 01:14:00,32.4,20.0,29.97,SSE,160,1.0,-999.0,60,-99.99,,,0.00,weatherlink.com 1.10,2013-02-25 06:14:00,
2013-02-25 01:29:00,32.7,20.0,29.97,NNW,337,0.0,-999.0,60,-99.99,,,0.00,weatherlink.com 1.10,2013-02-25 06:29:00,
2013-02-25 01:44:00,32.8,20.0,29.97,South,186,5.0,-999.0,59,-99.99,,,0.00,weatherlink.com 1.10,2013-02-25 06:44:00,
2013-02-25 01:59:00,32.8,19.0,29.97,ENE,78,0.0,-999.0,58,-99.99,,,0.00,weatherlink.com 1.10,2013-02-25 06:59:00,
2013-02-25 02:14:00,32.8,19.0,29.96,SSW,200,3.0,-999.0,58,-99.99,,,0.00,weatherlink.com 1.10,2013-02-25 07:14:00,
2013-02-25 02:29:00,32.8,19.0,29.96,SSW,205,0.0,-999.0,58,-99.99,,,0.00,weatherlink.com 1.10,2013-02-25 07:29:00,
2013-02-25 02:44:00,33.1,19.0,29.95,SSW,206,3.0,-999.0,57,-99.99,,,0.00,weatherlink.com 1.10,2013-02-25 07:44:00,
2013-02-25 02:59:00,33.4,19.0,29.95,SW,227,0.0,-999.0,56,-99.99,,,0.00,weatherlink.com 1.10,2013-02-25 07:59:00,
2013-02-25 03:14:00,33.7,18.0,29.95,SSW,208,2.0,-999.0,54,-99.99,,,0.00,weatherlink.com 1.10,2013-02-25 08:14:00,
2013-02-25 03:29:00,33.5,19.0,29.96,SSE,164,0.0,-999.0,55,-99.99,,,0.00,weatherlink.com 1.10,2013-02-25 08:29:00,
2013-02-25 03:44:00,33.5,19.0,29.98,SSW,205,0.0,-999.0,55,-99.99,,,0.00,weatherlink.com 1.10,2013-02-25 08:44:00,
2013-02-25 03:59:00,33.4,20.0,29.97,SSW,206,0.0,-999.0,58,-99.99,,,0.00,weatherlink.com 1.10,2013-02-25 08:59:00,
2013-02-25 04:14:00,31.8,20.0,29.97,SSW,206,0.0,-999.0,63,-99.99,,,0.00,weatherlink.com 1.10,2013-02-25 09:14:00,
2013-02-25 04:29:00,30.6,22.0,29.98,SSW,206,0.0,-999.0,69,-99.99,,,0.00,weatherlink.com 1.10,2013-02-25 09:29:00,
2013-02-25 04:44:00,30.0,20.0,29.99,SSW,206,0.0,-999.0,66,-99.99,,,0.00,weatherlink.com 1.10,2013-02-25 09:44:00,
2013-02-25 04:59:00,29.4,20.0,30.00,SSW,206,0.0,-999.0,68,-99.99,,,0.00,weatherlink.com 1.10,2013-02-25 09:59:00,
2013-02-25 05:14:00,29.1,21.0,30.00,SSW,206,0.0,-999.0,71,-99.99,,,0.00,weatherlink.com 1.10,2013-02-25 10:14:00,
2013-02-25 05:29:00,28.8,21.0,30.02,SSW,206,0.0,-999.0,72,-99.99,,,0.00,weatherlink.com 1.10,2013-02-25 10:29:00,
2013-02-25 05:44:00,28.2,21.0,30.02,SSW,206,0.0,-999.0,74,-99.99,,,0.00,weatherlink.com 1.10,2013-02-25 10:44:00,
2013-02-25 05:59:00,28.1,22.0,30.03,SSW,206,0.0,-999.0,77,-99.99,,,0.00,weatherlink.com 1.10,2013-02-25 10:59:00,
2013-02-25 06:14:00,28.1,20.0,30.03,SSW,206,0.0,-999.0,73,-99.99,,,0.00,weatherlink.com 1.10,2013-02-25 11:14:00,
2013-02-25 06:29:00,28.1,20.0,30.05,SSW,206,0.0,-999.0,71,-99.99,,,0.00,weatherlink.com 1.10,2013-02-25 11:29:00,
2013-02-25 06:44:00,27.9,19.0,30.05,SSW,206,0.0,-999.0,70,-99.99,,,0.00,weatherlink.com 1.10,2013-02-25 11:44:00,
2013-02-25 06:59:00,27.8,20.0,30.06,SSW,206,0.0,-999.0,71,-99.99,,,0.00,weatherlink.com 1.10,2013-02-25 11:59:00,
2013-02-25 07:14:00,27.9,20.0,30.07,SSW,205,0.0,-999.0,71,-99.99,,,0.00,weatherlink.com 1.10,2013-02-25 12:14:00,
2013-02-25 07:29:00,28.1,19.0,30.08,NNE,27,0.0,-999.0,70,-99.99,,,0.00,weatherlink.com 1.10,2013-02-25 12:29:00,
2013-02-25 07:45:00,28.4,20.0,30.08,NE,54,0.0,-999.0,70,-99.99,,,0.00,weatherlink.com 1.10,2013-02-25 12:45:00,
2013-02-25 07:59:00,28.5,20.0,30.08,ENE,62,0.0,-999.0,71,-99.99,,,0.00,weatherlink.com 1.10,2013-02-25 12:59:00,
2013-02-25 08:14:00,28.7,21.0,30.10,ENE,62,0.0,-999.0,73,-99.99,,,0.00,weatherlink.com 1.10,2013-02-25 13:14:00,
2013-02-25 08:29:00,29.0,21.0,30.10,ENE,62,0.0,-999.0,72,-99.99,,,0.00,weatherlink.com 1.10,2013-02-25 13:29:00,
2013-02-25 08:44:00,29.0,21.0,30.11,ENE,64,0.0,-999.0,72,-99.99,,,0.00,weatherlink.com 1.10,2013-02-25 13:44:00,
2013-02-25 08:59:00,29.1,21.0,30.11,NNE,25,0.0,-999.0,73,-99.99,,,0.00,weatherlink.com 1.10,2013-02-25 13:59:00,
2013-02-25 09:14:00,29.4,22.0,30.12,North,3,1.0,-999.0,74,-99.99,,,0.00,weatherlink.com 1.10,2013-02-25 14:14:00,
2013-02-25 09:29:00,29.3,22.0,30.12,ENE,58,0.0,-999.0,73,-99.99,,,0.00,weatherlink.com 1.10,2013-02-25 14:29:00,
2013-02-25 09:44:00,29.0,22.0,30.13,NNE,13,0.0,-999.0,74,-99.99,,,0.00,weatherlink.com 1.10,2013-02-25 14:44:00,
2013-02-25 09:59:00,29.3,22.0,30.14,North,0,0.0,-999.0,75,-99.99,,,0.00,weatherlink.com 1.10,2013-02-25 14:59:00,
2013-02-25 10:14:00,29.7,23.0,30.13,North,6,0.0,-999.0,75,-99.99,,,0.00,weatherlink.com 1.10,2013-02-25 15:14:00,
2013-02-25 10:29:00,30.3,23.0,30.12,North,0,0.0,-999.0,74,-99.99,,,0.00,weatherlink.com 1.10,2013-02-25 15:29:00,
2013-02-25 10:44:00,30.4,23.0,30.12,North,359,0.0,-999.0,73,-99.99,,,0.00,weatherlink.com 1.10,2013-02-25 15:44:00,
2013-02-25 10:59:00,30.4,23.0,30.13,NNE,21,1.0,-999.0,73,-99.99,,,0.00,weatherlink.com 1.10,2013-02-25 15:59:00,
2013-02-25 11:14:00,30.9,23.0,30.13,NNW,344,0.0,-999.0,73,-99.99,,,0.00,weatherlink.com 1.10,2013-02-25 16:14:00,
2013-02-25 11:29:00,31.0,23.0,30.13,WNW,298,0.0,-999.0,73,-99.99,,,0.00,weatherlink.com 1.10,2013-02-25 16:29:00,
2013-02-25 11:44:00,31.9,23.0,30.11,North,353,0.0,-999.0,71,-99.99,,,0.00,weatherlink.com 1.10,2013-02-25 16:44:00,
2013-02-25 11:59:00,32.7,24.0,30.10,North,0,1.0,-999.0,70,-99.99,,,0.00,weatherlink.com 1.10,2013-02-25 16:59:00,
2013-02-25 12:15:00,32.4,22.0,30.10,ENE,75,0.0,-999.0,66,-99.99,,,0.00,weatherlink.com 1.10,2013-02-25 17:15:00,
2013-02-25 12:30:00,32.7,24.0,30.09,North,0,0.0,-999.0,69,-99.99,,,0.00,weatherlink.com 1.10,2013-02-25 17:30:00,
2013-02-25 12:45:00,33.5,24.0,30.07,North,357,0.0,-999.0,68,-99.99,,,0.00,weatherlink.com 1.10,2013-02-25 17:45:00,
2013-02-25 13:00:00,34.0,24.0,30.07,NNE,23,0.0,-999.0,67,-99.99,,,0.00,weatherlink.com 1.10,2013-02-25 18:00:00,
2013-02-25 13:15:00,34.7,25.0,30.07,North,0,0.0,-999.0,69,-99.99,,,0.00,weatherlink.com 1.10,2013-02-25 18:15:00,
2013-02-25 13:30:00,35.5,25.0,30.05,North,349,0.0,-999.0,67,-99.99,,,0.00,weatherlink.com 1.10,2013-02-25 18:30:00,
2013-02-25 13:45:00,35.6,25.0,30.05,NNW,342,1.0,-999.0,65,-99.99,,,0.00,weatherlink.com 1.10,2013-02-25 18:45:00,
2013-02-25 14:00:00,34.7,24.0,30.05,North,0,0.0,-999.0,66,-99.99,,,0.00,weatherlink.com 1.10,2013-02-25 19:00:00,
2013-02-25 14:15:00,35.0,25.0,30.04,North,352,1.0,-999.0,66,-99.99,,,0.00,weatherlink.com 1.10,2013-02-25 19:15:00,
2013-02-25 14:30:00,35.6,26.0,30.03,North,352,0.0,-999.0,67,-99.99,,,0.00,weatherlink.com 1.10,2013-02-25 19:30:00,
2013-02-25 14:45:00,36.2,26.0,30.04,North,356,0.0,-999.0,66,-99.99,,,0.00,weatherlink.com 1.10,2013-02-25 19:45:00,
2013-02-25 15:00:00,36.6,26.0,30.03,North,0,0.0,-999.0,66,-99.99,,,0.00,weatherlink.com 1.10,2013-02-25 20:00:00,
2013-02-25 15:15:00,37.0,26.0,30.03,North,350,2.0,-999.0,65,-99.99,,,0.00,weatherlink.com 1.10,2013-02-25 20:15:00,
2013-02-25 15:30:00,37.6,26.0,30.02,North,359,0.0,-999.0,63,-99.99,,,0.00,weatherlink.com 1.10,2013-02-25 20:30:00,
2013-02-25 15:45:00,38.0,26.0,30.02,ENE,65,1.0,-999.0,63,-99.99,,,0.00,weatherlink.com 1.10,2013-02-25 20:45:00,
2013-02-25 16:00:00,37.6,26.0,30.01,North,359,0.0,-999.0,64,-99.99,,,0.00,weatherlink.com 1.10,2013-02-25 21:00:00,
2013-02-25 16:15:00,37.9,25.0,30.02,NE,44,0.0,-999.0,61,-99.99,,,0.00,weatherlink.com 1.10,2013-02-25 21:15:00,
2013-02-25 16:30:00,37.6,25.0,30.04,NE,52,1.0,-999.0,61,-99.99,,,0.00,weatherlink.com 1.10,2013-02-25 21:30:00,
2013-02-25 16:45:00,36.8,25.0,30.03,ENE,72,0.0,-999.0,62,-99.99,,,0.00,weatherlink.com 1.10,2013-02-25 21:45:00,
2013-02-25 17:00:00,35.6,25.0,30.04,NNE,31,0.0,-999.0,65,-99.99,,,0.00,weatherlink.com 1.10,2013-02-25 22:00:00,
2013-02-25 17:15:00,34.7,25.0,30.05,NNE,17,0.0,-999.0,67,-99.99,,,0.00,weatherlink.com 1.10,2013-02-25 22:15:00,
2013-02-25 17:30:00,34.1,25.0,30.05,NNE,17,0.0,-999.0,68,-99.99,,,0.00,weatherlink.com 1.10,2013-02-25 22:30:00,
2013-02-25 17:45:00,33.5,24.0,30.05,NNE,17,0.0,-999.0,69,-99.99,,,0.00,weatherlink.com 1.10,2013-02-25 22:45:00,
2013-02-25 18:00:00,32.9,24.0,30.06,NNE,24,0.0,-999.0,69,-99.99,,,0.00,weatherlink.com 1.10,2013-02-25 23:00:00,
2013-02-25 18:15:00,32.2,24.0,30.06,NNE,24,0.0,-999.0,71,-99.99,,,0.00,weatherlink.com 1.10,2013-02-25 23:15:00,
2013-02-25 18:30:00,31.5,23.0,30.06,NNE,24,0.0,-999.0,72,-99.99,,,0.00,weatherlink.com 1.10,2013-02-25 23:30:00,
2013-02-25 18:45:00,30.9,23.0,30.06,NNE,24,0.0,-999.0,73,-99.99,,,0.00,weatherlink.com 1.10,2013-02-25 23:45:00,
2013-02-25 19:00:00,30.3,24.0,30.08,ENE,76,0.0,-999.0,76,-99.99,,,0.00,weatherlink.com 1.10,2013-02-26 00:00:00,
2013-02-25 19:15:00,29.8,23.0,30.07,ENE,76,0.0,-999.0,77,-99.99,,,0.00,weatherlink.com 1.10,2013-02-26 00:15:00,
2013-02-25 19:30:00,29.4,23.0,30.07,ENE,76,0.0,-999.0,78,-99.99,,,0.00,weatherlink.com 1.10,2013-02-26 00:30:00,
2013-02-25 20:00:00,28.8,24.0,30.07,ENE,76,0.0,-999.0,81,-99.99,,,0.00,weatherlink.com 1.10,2013-02-26 01:00:00,
2013-02-25 20:15:00,28.5,23.0,30.09,ENE,61,0.0,-999.0,81,-99.99,,,0.00,weatherlink.com 1.10,2013-02-26 01:15:00,
2013-02-25 20:30:00,28.4,23.0,30.09,ENE,61,0.0,-999.0,81,-99.99,,,0.00,weatherlink.com 1.10,2013-02-26 01:30:00,
2013-02-25 20:45:00,28.5,23.0,30.10,ENE,72,0.0,-999.0,80,-99.99,,,0.00,weatherlink.com 1.10,2013-02-26 01:45:00,
2013-02-25 21:00:00,28.7,23.0,30.08,NE,45,0.0,-999.0,79,-99.99,,,0.00,weatherlink.com 1.10,2013-02-26 02:00:00,
2013-02-25 21:15:00,28.7,23.0,30.09,NNE,27,1.0,-999.0,78,-99.99,,,0.00,weatherlink.com 1.10,2013-02-26 02:15:00,
2013-02-25 21:30:00,28.8,23.0,30.09,North,4,2.0,-999.0,79,-99.99,,,0.00,weatherlink.com 1.10,2013-02-26 02:30:00,
2013-02-25 21:45:00,29.0,23.0,30.09,NE,45,0.0,-999.0,77,-99.99,,,0.00,weatherlink.com 1.10,2013-02-26 02:45:00,
2013-02-25 22:00:00,28.7,22.0,30.09,NE,37,0.0,-999.0,77,-99.99,,,0.00,weatherlink.com 1.10,2013-02-26 03:00:00,
2013-02-25 22:15:00,28.7,22.0,30.10,North,0,1.0,-999.0,77,-99.99,,,0.00,weatherlink.com 1.10,2013-02-26 03:15:00,
2013-02-25 22:30:00,28.7,22.0,30.08,North,0,1.0,-999.0,77,-99.99,,,0.00,weatherlink.com 1.10,2013-02-26 03:30:00,
2013-02-25 22:45:00,28.7,22.0,30.08,NE,47,0.0,-999.0,76,-99.99,,,0.00,weatherlink.com 1.10,2013-02-26 03:45:00,
2013-02-25 23:00:00,28.5,22.0,30.08,West,277,1.0,-999.0,76,-99.99,,,0.00,weatherlink.com 1.10,2013-02-26 04:00:00,
2013-02-25 23:15:00,28.2,22.0,30.08,SE,138,1.0,-999.0,76,-99.99,,,0.00,weatherlink.com 1.10,2013-02-26 04:15:00,
2013-02-25 23:30:00,28.1,21.0,30.09,NNE,28,0.0,-999.0,75,-99.99,,,0.00,weatherlink.com 1.10,2013-02-26 04:30:00,
2013-02-25 23:45:00,27.9,21.0,30.07,North,357,1.0,-999.0,76,-99.99,,,0.00,weatherlink.com 1.10,2013-02-26 04:45:00,